Skip Navigation Links
NOAA logo - Click to go to the NOAA homepage
NOAA's National Weather Service
Alaska Aviation Weather Unit
  NWS logo - Click to go to the NWS homepage
Left Navbar Graphic     18 AKDT = 02 GMT

   
NOAA is celebrating 200 years of science, service, and stewardship. Visit the NOAA 200th celebration Web site to learn more.
USA.gov is the U.S. Government's official Web portal to all Federal, state and local government Web resources and services.
Facebook
NWS on Facebook

Important Change Regarding the AAWU Web Presence

 

Over the last several months, the AAWU has been working to navigate its webpages to a nationally supported server. Security, as well as other needs, have necessitated the change.  In the process, we have made an effort to enhance the functionality of our website, as well as some of our products. As of June 20, 2017, aawu.arh.noaa.gov will be discontinued. The new AAWU web address is weather.gov/aawu. It is now live and will run in-parallel with the old site until it is discontinued. Please send any feedback or questions regarding the new webpages to nws.ar.aawu.webauthors@noaa.gov.  Thank you for your patience during this time of transition.
AAWU Home :: Display TAF Add Bookmark
METAR PAAK 242016Z 27018G26KT 10SM FEW030 SCT035 OVC044 07/02 A3021 RMK
     AO1=

METAR PAAK 242036Z 27016G22KT 9SM FEW018 SCT026 BKN031 04/M01 A3022 RMK
     AO1=

METAR PAAK 242056Z 28016G28KT 7SM FEW021 BKN029 OVC036 06/01 A3023 RMK
     AO1 52024=

METAR PAAK 242116Z 27017G24KT 10SM FEW021 SCT027 BKN037 07/02 A3023
 RMK AO1=

METAR PAAK 242136Z 27019G27KT 10SM OVC041 07/02 A3023 RMK AO1=

METAR PAAK 242156Z 27019G27KT 10SM FEW024 BKN036 OVC043 07/01 A3024 RMK
     AO1=

METAR PAAK 242216Z 27019G29KT 10SM FEW028 OVC036 07/01 A3025 RMK AO1=

METAR PAAK 242236Z 28022G27KT 10SM FEW020 SCT026 BKN032 07/01 A3026 RMK
     AO1=

METAR PAAK 242256Z 28017G23KT 10SM FEW026 SCT032 BKN038 07/01 A3026 RMK
     AO1=

METAR PAAK 242316Z 27017G26KT 10SM FEW018 SCT040 BKN046 08/02 A3025 RMK
     AO1=

METAR PAAK 242336Z 27018G27KT 8SM FEW016 SCT027 BKN036 07/01 A3026 RMK
     AO1=

METAR PAAK 242356Z 27015G25KT 10SM FEW025 SCT036 OVC042 08/01 A3027 RMK
     AO1 10080 20040 401100030 52014=

METAR PAAK 250016Z 27016G27KT 10SM FEW030 BKN035 BKN042 07/01 A3027 RMK
     AO1=

METAR PAAK 250036Z 27021G25KT 10SM OVC039 08/01 A3027 RMK AO1=

METAR PAAK 250056Z 27017G25KT 10SM OVC039 08/01 A3028 RMK AO1=

METAR PAAK 250116Z 28017G25KT 10SM BKN039 08/01 A3028 RMK AO1=

METAR PAAK 250136Z 26020G25KT 10SM SCT041 08/01 A3029 RMK AO1=

METAR PAAK 250156Z 27018G25KT 10SM SCT041 08/01 A3028 RMK AO1=

METAR PAAK 250216Z 28019G23KT 10SM BKN045 07/00 A3028 RMK AO1=

METAR PAAK 250236Z 27019G24KT 10SM OVC045 07/01 A3029 RMK AO1=


NOAA's National Weather Service
Alaska Aviation Weather Unit
6930 Sand Lake Road
Anchorage, AK 99502-1845
Disclaimer
Credits
Glossary
Privacy Policy
About Us
Career Opportunities
Contact AAWU Internet Services Site last modified: April, 17th 2012